createdAt,value
2022-10-14T00:01:27.963Z,57.88
2022-10-14T00:03:56.575Z,49.92
2022-10-14T00:06:28.540Z,63.17
2022-10-14T00:08:57.882Z,60.45
2022-10-14T00:11:29.705Z,76.35
2022-10-14T00:14:01.044Z,76.22
2022-10-14T00:16:35.426Z,66.15
2022-10-14T00:19:04.938Z,58.08
2022-10-14T00:21:34.692Z,56.05
2022-10-14T00:24:03.353Z,51.75
2022-10-14T00:26:35.081Z,63.17
2022-10-14T00:29:06.606Z,58.05
2022-10-14T00:31:37.246Z,53.30
2022-10-14T00:34:05.997Z,72.22
2022-10-14T00:36:35.171Z,59.42
2022-10-14T00:39:03.827Z,65.50
2022-10-14T00:41:36.235Z,97.97
2022-10-14T00:44:07.505Z,61.00
2022-10-14T00:46:41.045Z,57.83
2022-10-14T00:49:14.510Z,56.58
2022-10-14T00:51:46.664Z,49.33
2022-10-14T00:54:18.727Z,50.88
2022-10-14T00:56:49.278Z,59.42
2022-10-14T00:59:18.873Z,60.72
2022-10-14T01:01:48.692Z,56.80
2022-10-14T01:04:18.536Z,71.10
2022-10-14T01:07:03.440Z,77.78
2022-10-14T01:09:36.408Z,78.55
2022-10-14T01:12:35.351Z,63.50
2022-10-14T01:15:18.038Z,60.92
2022-10-14T01:18:02.832Z,60.30
2022-10-14T01:20:46.531Z,57.65
2022-10-14T01:23:39.836Z,55.80
2022-10-14T01:26:30.323Z,54.47
2022-10-14T01:29:21.591Z,66.03
2022-10-14T01:32:01.192Z,46.38
2022-10-14T01:34:44.036Z,50.63
2022-10-14T01:37:20.370Z,54.10
2022-10-14T01:39:56.371Z,53.90
2022-10-14T01:42:27.520Z,53.17
2022-10-14T01:45:02.534Z,55.80
2022-10-14T01:47:36.667Z,59.67
2022-10-14T01:50:13.863Z,68.38
2022-10-14T01:52:48.520Z,72.47
2022-10-14T01:55:22.216Z,48.67
2022-10-14T01:57:54.607Z,69.20
2022-10-14T02:00:23.436Z,66.88
2022-10-14T02:02:53.088Z,52.17
2022-10-14T02:05:30.279Z,67.75
2022-10-14T02:08:08.554Z,96.53
2022-10-14T02:11:02.196Z,76.03
2022-10-14T02:13:57.686Z,76.65
2022-10-14T02:16:39.090Z,63.17
2022-10-14T02:19:27.208Z,81.43
2022-10-14T02:22:02.966Z,64.15
2022-10-14T02:24:37.730Z,57.60
2022-10-14T02:27:12.081Z,60.65
2022-10-14T02:29:45.860Z,70.28
2022-10-14T02:32:20.319Z,65.97
2022-10-14T02:34:58.021Z,61.67
2022-10-14T02:37:28.826Z,64.10
2022-10-14T02:40:06.107Z,69.40
2022-10-14T02:42:35.003Z,64.72
2022-10-14T02:45:07.660Z,66.68
2022-10-14T02:47:36.350Z,60.33
2022-10-14T02:50:07.060Z,67.50
2022-10-14T02:52:35.565Z,64.15
2022-10-14T02:55:03.990Z,51.15
2022-10-14T02:57:32.298Z,98.70
2022-10-14T03:00:00.559Z,55.80
2022-10-14T03:02:29.660Z,81.32
2022-10-14T03:05:00.040Z,58.50
2022-10-14T03:07:31.683Z,82.05
2022-10-14T03:10:04.907Z,78.90
2022-10-14T03:12:36.866Z,62.63
2022-10-14T03:15:07.175Z,47.10
2022-10-14T03:17:36.651Z,52.28
2022-10-14T03:20:08.472Z,46.45
2022-10-14T03:22:46.240Z,58.65
2022-10-14T03:25:15.133Z,48.03
2022-10-14T03:27:57.584Z,50.70
2022-10-14T03:30:38.449Z,67.30
2022-10-14T03:33:15.104Z,63.50
2022-10-14T03:36:02.890Z,58.75
2022-10-14T03:38:45.352Z,61.65
2022-10-14T03:41:23.712Z,76.15
2022-10-14T03:43:53.945Z,53.08
2022-10-14T03:46:22.730Z,58.05
2022-10-14T03:48:53.886Z,52.15
2022-10-14T03:51:22.644Z,66.47
2022-10-14T03:53:52.413Z,65.35
2022-10-14T03:56:29.197Z,54.20
2022-10-14T03:58:57.590Z,50.10
2022-10-14T04:01:27.125Z,104.70
2022-10-14T04:04:16.125Z,74.93
2022-10-14T04:06:44.805Z,80.65
2022-10-14T04:09:15.037Z,94.55
2022-10-14T04:11:44.053Z,75.68
2022-10-14T04:14:29.681Z,73.15
2022-10-14T04:16:59.422Z,63.45
2022-10-14T04:19:29.362Z,58.00
2022-10-14T04:21:58.050Z,78.65
2022-10-14T04:24:30.556Z,89.55
2022-10-14T04:27:00.944Z,71.53
2022-10-14T04:29:53.823Z,88.57
2022-10-14T04:32:29.859Z,89.22
2022-10-14T04:34:58.774Z,91.70
2022-10-14T04:37:32.028Z,73.65
2022-10-14T04:40:25.630Z,109.32
2022-10-14T04:42:59.222Z,98.25
2022-10-14T04:45:33.760Z,99.00
2022-10-14T04:48:05.526Z,82.70
2022-10-14T04:50:39.719Z,128.20
2022-10-14T04:53:27.971Z,87.53
2022-10-14T04:56:14.609Z,81.35
2022-10-14T04:58:53.965Z,89.07
2022-10-14T05:01:26.589Z,87.43
2022-10-14T05:03:59.346Z,83.22
2022-10-14T05:06:27.998Z,85.05
2022-10-14T05:08:57.816Z,70.35
2022-10-14T05:11:29.906Z,71.25
2022-10-14T05:14:00.042Z,84.75
2022-10-14T05:16:31.373Z,107.45
2022-10-14T05:18:59.764Z,72.10
2022-10-14T05:21:29.679Z,61.60
2022-10-14T05:24:11.195Z,61.78
2022-10-14T05:26:43.420Z,94.88
2022-10-14T05:29:15.008Z,89.80
2022-10-14T05:31:45.188Z,67.03
2022-10-14T05:34:27.173Z,94.93
2022-10-14T05:36:57.699Z,57.72
2022-10-14T05:39:27.221Z,54.97
2022-10-14T05:41:59.046Z,56.72
2022-10-14T05:44:30.622Z,58.83
2022-10-14T05:47:00.438Z,104.85
2022-10-14T05:49:29.296Z,77.55
2022-10-14T05:51:59.883Z,60.70
2022-10-14T05:54:28.739Z,82.05
2022-10-14T05:57:00.297Z,56.65
2022-10-14T05:59:30.266Z,90.72
2022-10-14T06:01:59.713Z,80.10
2022-10-14T06:04:29.022Z,57.20
2022-10-14T06:06:59.689Z,52.88
2022-10-14T06:09:28.392Z,54.30
2022-10-14T06:11:56.727Z,56.35
2022-10-14T06:14:26.555Z,48.30
2022-10-14T06:16:55.755Z,57.60
2022-10-14T06:19:25.649Z,45.33
2022-10-14T06:21:54.448Z,59.38
2022-10-14T06:24:23.060Z,49.40
2022-10-14T06:26:51.784Z,69.47
2022-10-14T06:29:20.374Z,64.63
2022-10-14T06:31:50.279Z,48.17
2022-10-14T06:34:22.707Z,57.80
2022-10-14T06:36:51.090Z,56.85
2022-10-14T06:39:19.788Z,67.88
2022-10-14T06:41:48.401Z,70.15
2022-10-14T06:44:21.098Z,56.10
2022-10-14T06:46:50.856Z,58.70
2022-10-14T06:49:19.347Z,70.90
2022-10-14T06:51:47.692Z,56.03
2022-10-14T06:54:17.446Z,64.10
2022-10-14T06:56:46.119Z,79.03
2022-10-14T06:59:14.726Z,51.03
2022-10-14T07:01:43.407Z,67.38
2022-10-14T07:04:13.403Z,61.95
2022-10-14T07:06:41.853Z,46.75
2022-10-14T07:09:10.418Z,39.92
2022-10-14T07:11:39.053Z,35.28
2022-10-14T07:14:07.374Z,35.90
2022-10-14T07:16:35.804Z,41.47
2022-10-14T07:19:04.568Z,34.10
2022-10-14T07:21:34.313Z,36.17
2022-10-14T07:24:03.052Z,41.05
2022-10-14T07:26:32.139Z,39.67
2022-10-14T07:29:01.236Z,38.55
2022-10-14T07:31:30.021Z,36.47
2022-10-14T07:33:58.729Z,36.40
2022-10-14T07:36:27.419Z,33.20
2022-10-14T07:38:57.293Z,39.83
2022-10-14T07:41:26.778Z,36.25
2022-10-14T07:44:01.921Z,41.33
2022-10-14T07:46:32.419Z,34.55
2022-10-14T07:49:08.505Z,43.03
2022-10-14T07:51:37.648Z,37.20
2022-10-14T07:54:10.434Z,38.00
2022-10-14T07:56:39.623Z,38.10
2022-10-14T07:59:08.303Z,35.08
2022-10-14T08:01:37.454Z,34.75
2022-10-14T08:04:06.383Z,34.22
2022-10-14T08:06:35.049Z,31.58
2022-10-14T08:09:07.593Z,36.20
2022-10-14T08:11:37.594Z,31.13
2022-10-14T08:14:06.747Z,36.13
2022-10-14T08:16:37.237Z,32.65
2022-10-14T08:19:13.497Z,32.10
2022-10-14T08:21:43.787Z,31.13
2022-10-14T08:24:13.765Z,32.17
2022-10-14T08:26:50.955Z,29.23
2022-10-14T08:29:19.332Z,25.48
2022-10-14T08:31:47.940Z,28.90
2022-10-14T08:34:16.471Z,24.33
2022-10-14T08:36:45.189Z,29.40
2022-10-14T08:39:15.102Z,24.20
2022-10-14T08:42:05.776Z,22.80
2022-10-14T08:44:46.698Z,23.25
2022-10-14T08:47:18.051Z,22.85
2022-10-14T08:50:01.591Z,24.63
2022-10-14T08:52:37.889Z,21.45
2022-10-14T08:55:24.546Z,21.35
2022-10-14T08:57:58.785Z,18.95
2022-10-14T09:00:29.389Z,17.63
2022-10-14T09:03:01.129Z,19.42
2022-10-14T09:05:29.999Z,17.40
2022-10-14T09:07:59.623Z,20.67
2022-10-14T09:10:36.013Z,14.20
2022-10-14T09:13:12.998Z,15.80
2022-10-14T09:15:44.859Z,17.02
2022-10-14T09:18:25.311Z,15.10
2022-10-14T09:20:54.772Z,18.20
2022-10-14T09:23:25.347Z,16.17
2022-10-14T09:25:59.580Z,14.32
2022-10-14T09:28:38.277Z,16.50
2022-10-14T09:31:09.246Z,13.75
2022-10-14T09:33:42.309Z,19.83
2022-10-14T09:36:19.329Z,15.52
2022-10-14T09:38:51.634Z,17.60
2022-10-14T09:41:29.105Z,14.43
2022-10-14T09:44:25.486Z,15.20
2022-10-14T09:46:57.899Z,12.73
2022-10-14T09:49:39.117Z,15.40
2022-10-14T09:52:09.233Z,14.55
2022-10-14T09:54:37.977Z,12.63
2022-10-14T09:57:18.173Z,14.73
2022-10-14T09:59:56.109Z,11.82
2022-10-14T10:02:35.973Z,9.45
2022-10-14T10:05:14.864Z,7.95
2022-10-14T10:07:43.532Z,12.00
2022-10-14T10:10:22.008Z,13.05
2022-10-14T10:12:51.785Z,8.80
2022-10-14T10:15:22.564Z,10.32
2022-10-14T10:17:52.193Z,9.45
2022-10-14T10:20:28.582Z,8.18
2022-10-14T10:22:58.189Z,10.13
2022-10-14T10:25:28.578Z,10.52
2022-10-14T10:28:00.918Z,9.80
2022-10-14T10:30:34.000Z,11.18
2022-10-14T10:33:23.465Z,10.43
2022-10-14T10:36:02.456Z,11.48
2022-10-14T10:38:38.688Z,10.27
2022-10-14T10:41:23.647Z,13.38
2022-10-14T10:44:12.756Z,8.88
2022-10-14T10:47:07.814Z,9.38
2022-10-14T10:50:10.044Z,14.45
2022-10-14T10:52:54.213Z,8.10
2022-10-14T10:55:32.327Z,7.28
2022-10-14T10:58:12.511Z,10.73
2022-10-14T11:00:58.109Z,9.52
2022-10-14T11:03:52.363Z,8.20
2022-10-14T11:06:47.889Z,9.32
2022-10-14T11:09:47.864Z,6.80
2022-10-14T11:12:27.518Z,6.25
2022-10-14T11:15:31.205Z,7.22
2022-10-14T11:18:04.861Z,5.47
2022-10-14T11:20:49.738Z,7.85
2022-10-14T11:23:49.291Z,7.43
2022-10-14T11:26:41.528Z,8.00
2022-10-14T11:29:29.424Z,5.72
2022-10-14T11:32:11.217Z,6.38
2022-10-14T11:34:49.040Z,7.88
2022-10-14T11:37:33.297Z,6.63
2022-10-14T11:40:15.906Z,6.72
2022-10-14T11:43:02.851Z,4.55
2022-10-14T11:45:43.781Z,5.00
2022-10-14T11:48:28.905Z,7.82
2022-10-14T11:51:14.792Z,6.65
2022-10-14T11:54:01.004Z,4.53
2022-10-14T11:56:49.612Z,8.13
2022-10-14T11:59:40.404Z,7.05
2022-10-14T12:02:27.458Z,7.15
2022-10-14T12:05:03.611Z,7.50
2022-10-14T12:07:40.407Z,4.68
2022-10-14T12:10:25.743Z,5.03
2022-10-14T12:12:56.721Z,4.72
2022-10-14T12:15:28.086Z,7.93
2022-10-14T12:18:00.799Z,5.35
2022-10-14T12:20:40.136Z,4.35
2022-10-14T12:23:16.884Z,5.40
2022-10-14T12:25:56.871Z,4.57
2022-10-14T12:28:25.811Z,5.90
2022-10-14T12:31:14.497Z,7.25
2022-10-14T12:34:18.990Z,4.80
2022-10-14T12:36:50.778Z,6.53
2022-10-14T12:39:43.497Z,4.55
2022-10-14T12:42:15.923Z,6.13
2022-10-14T12:44:51.911Z,5.72
2022-10-14T12:47:23.529Z,6.53
2022-10-14T12:49:56.255Z,6.10
2022-10-14T12:52:30.780Z,5.07
2022-10-14T12:55:05.138Z,4.00
2022-10-14T12:57:38.699Z,2.63
2022-10-14T13:00:33.326Z,3.88
2022-10-14T13:03:04.413Z,4.57
2022-10-14T13:05:36.834Z,5.38
2022-10-14T13:08:15.494Z,5.25
2022-10-14T13:10:48.391Z,5.32
2022-10-14T13:13:52.889Z,8.82
2022-10-14T13:17:00.435Z,6.50
2022-10-14T13:19:44.572Z,4.18
2022-10-14T13:22:41.783Z,5.18
2022-10-14T13:25:29.589Z,3.00
2022-10-14T13:28:25.665Z,4.00
2022-10-14T13:31:06.242Z,4.80
2022-10-14T13:33:41.886Z,6.85
2022-10-14T13:36:19.870Z,7.35
2022-10-14T13:38:55.418Z,4.55
2022-10-14T13:41:30.737Z,5.00
2022-10-14T13:44:02.673Z,4.40
2022-10-14T13:46:36.535Z,2.70
2022-10-14T13:51:52.830Z,7.57
2022-10-14T13:54:24.216Z,3.55
2022-10-14T13:57:38.735Z,4.35
2022-10-14T14:02:53.828Z,3.97
2022-10-14T14:05:28.057Z,7.85
2022-10-14T14:08:31.697Z,3.65
2022-10-14T14:11:15.177Z,5.18
2022-10-14T14:13:58.934Z,3.30
2022-10-14T14:16:34.988Z,6.07
2022-10-14T14:19:09.563Z,4.25
2022-10-14T14:21:39.075Z,5.22
2022-10-14T14:24:19.884Z,4.40
2022-10-14T14:26:56.585Z,4.80
2022-10-14T14:29:29.974Z,3.72
2022-10-14T14:32:07.075Z,4.93
2022-10-14T14:34:38.629Z,2.55
2022-10-14T14:37:43.548Z,2.28
2022-10-14T14:39:59.886Z,4.80
2022-10-14T14:42:31.715Z,5.68
2022-10-14T14:45:06.398Z,5.38
2022-10-14T14:47:36.307Z,2.97
2022-10-14T14:50:29.077Z,6.60
2022-10-14T14:53:02.082Z,5.85
2022-10-14T14:55:44.939Z,3.60
2022-10-14T14:58:28.629Z,9.82
2022-10-14T15:00:57.870Z,7.22
2022-10-14T15:03:31.200Z,4.97
2022-10-14T15:06:03.439Z,3.25
2022-10-14T15:08:35.021Z,4.63
2022-10-14T15:11:03.802Z,3.42
2022-10-14T15:13:46.484Z,4.97
2022-10-14T15:16:15.251Z,6.53
2022-10-14T15:18:44.945Z,5.30
2022-10-14T15:21:19.818Z,4.10
2022-10-14T15:24:03.202Z,11.02
2022-10-14T15:26:36.231Z,10.90
2022-10-14T15:29:18.777Z,6.15
2022-10-14T15:32:03.659Z,6.57
2022-10-14T15:34:35.679Z,4.47
2022-10-14T15:37:04.355Z,5.65
2022-10-14T15:39:33.035Z,5.25
2022-10-14T15:42:01.723Z,4.32
2022-10-14T15:44:33.209Z,4.00
2022-10-14T15:47:19.260Z,13.10
2022-10-14T15:49:50.838Z,30.42
2022-10-14T15:52:22.983Z,40.55
2022-10-14T15:54:54.822Z,6.93
2022-10-14T15:57:23.812Z,10.70
2022-10-14T15:59:53.725Z,13.55
2022-10-14T16:02:33.776Z,6.00
2022-10-14T16:05:20.892Z,12.18
2022-10-14T16:07:50.704Z,6.40
2022-10-14T16:10:21.920Z,7.05
2022-10-14T16:12:51.001Z,5.53
2022-10-14T16:15:33.335Z,6.25
2022-10-14T16:18:01.905Z,4.50
2022-10-14T16:20:32.172Z,5.80
2022-10-14T16:23:04.272Z,4.68
2022-10-14T16:25:39.340Z,7.45
2022-10-14T16:28:10.270Z,5.47
2022-10-14T16:30:41.521Z,4.28
2022-10-14T16:35:50.338Z,5.82
2022-10-14T16:38:18.956Z,7.18
2022-10-14T16:40:54.334Z,6.47
2022-10-14T16:43:22.764Z,5.40
2022-10-14T16:45:51.378Z,5.00
2022-10-14T16:48:20.053Z,4.50
2022-10-14T16:50:53.540Z,2.70
2022-10-14T16:53:44.637Z,2.20
2022-10-14T16:56:37.070Z,7.18
2022-10-14T16:59:07.689Z,4.20
2022-10-14T17:01:37.275Z,7.00
2022-10-14T17:04:14.912Z,3.47
2022-10-14T17:06:44.610Z,7.50
2022-10-14T17:09:14.051Z,5.55
2022-10-14T17:11:43.096Z,6.05
2022-10-14T17:14:15.408Z,4.78
2022-10-14T17:16:44.278Z,11.30
2022-10-14T17:19:12.922Z,5.55
2022-10-14T17:21:41.561Z,5.10
2022-10-14T17:24:13.045Z,6.57
2022-10-14T17:26:41.687Z,4.63
2022-10-14T17:29:10.285Z,6.60
2022-10-14T17:31:38.966Z,5.18
2022-10-14T17:34:10.807Z,4.07
2022-10-14T17:36:40.189Z,3.97
2022-10-14T17:39:16.358Z,6.05
2022-10-14T17:41:51.083Z,6.95
2022-10-14T17:44:20.179Z,4.10
2022-10-14T17:46:48.794Z,5.93
2022-10-14T17:49:17.419Z,4.30
2022-10-14T17:51:46.019Z,4.95
2022-10-14T17:54:14.642Z,8.93
2022-10-14T17:56:43.454Z,4.82
2022-10-14T17:59:14.387Z,6.85
2022-10-14T18:02:01.476Z,3.60
2022-10-14T18:04:32.513Z,5.35
2022-10-14T18:07:01.544Z,4.75
2022-10-14T18:09:30.231Z,6.72
2022-10-14T18:12:14.244Z,6.30
2022-10-14T18:14:44.505Z,7.10
2022-10-14T18:17:14.250Z,8.65
2022-10-14T18:19:45.048Z,7.30
2022-10-14T18:22:16.977Z,7.57
2022-10-14T18:24:45.879Z,12.40
2022-10-14T18:27:14.521Z,8.63
2022-10-14T18:29:44.208Z,7.15
2022-10-14T18:32:12.878Z,7.47
2022-10-14T18:34:41.549Z,4.78
2022-10-14T18:37:10.235Z,6.70
2022-10-14T18:39:38.915Z,5.45
2022-10-14T18:42:07.704Z,6.28
2022-10-14T18:44:36.326Z,6.85
2022-10-14T18:47:06.898Z,5.70
2022-10-14T18:49:39.903Z,7.07
2022-10-14T18:52:09.682Z,6.68
2022-10-14T18:54:38.118Z,5.70
2022-10-14T18:57:06.460Z,5.03
2022-10-14T18:59:35.880Z,6.03
2022-10-14T19:02:06.649Z,6.07
2022-10-14T19:04:35.438Z,8.13
2022-10-14T19:07:04.283Z,9.68
2022-10-14T19:09:34.448Z,7.43
2022-10-14T19:12:24.099Z,9.88
2022-10-14T19:14:53.111Z,8.82
2022-10-14T19:17:23.277Z,6.53
2022-10-14T19:19:51.609Z,5.20
2022-10-14T19:22:20.434Z,6.47
2022-10-14T19:24:49.177Z,6.00
2022-10-14T19:27:17.868Z,6.22
2022-10-14T19:29:46.491Z,6.93
2022-10-14T19:32:14.832Z,6.40
2022-10-14T19:34:47.479Z,6.82
2022-10-14T19:37:15.964Z,6.30
2022-10-14T19:39:44.372Z,6.53
2022-10-14T19:42:12.776Z,5.32
2022-10-14T19:44:41.521Z,7.88
2022-10-14T19:47:10.214Z,9.02
2022-10-14T19:49:38.916Z,6.47
2022-10-14T19:52:09.027Z,7.18
2022-10-14T19:54:37.600Z,7.15
2022-10-14T19:57:06.300Z,9.07
2022-10-14T19:59:34.940Z,6.13
2022-10-14T20:02:03.290Z,6.35
2022-10-14T20:04:31.712Z,7.22
2022-10-14T20:07:00.396Z,5.95
2022-10-14T20:09:30.167Z,8.85
2022-10-14T20:11:58.882Z,7.45
2022-10-14T20:14:27.989Z,7.90
2022-10-14T20:16:56.625Z,7.47
2022-10-14T20:19:25.330Z,10.77
2022-10-14T20:21:53.980Z,7.57
2022-10-14T20:24:22.602Z,7.47
2022-10-14T20:26:52.576Z,6.32
2022-10-14T20:29:21.199Z,8.45
2022-10-14T20:31:49.874Z,8.02
2022-10-14T20:34:18.458Z,7.57
2022-10-14T20:36:47.117Z,8.27
2022-10-14T20:39:15.693Z,9.75
2022-10-14T20:41:44.429Z,9.15
2022-10-14T20:44:14.446Z,12.77
2022-10-14T20:46:43.097Z,8.32
2022-10-14T20:49:12.267Z,13.40
2022-10-14T20:51:41.209Z,9.77
2022-10-14T20:54:11.860Z,8.70
2022-10-14T20:56:40.641Z,10.45
2022-10-14T20:59:13.258Z,8.48
2022-10-14T21:01:43.062Z,9.63
2022-10-14T21:04:12.080Z,6.88
2022-10-14T21:06:41.206Z,8.82
2022-10-14T21:09:10.752Z,7.63
2022-10-14T21:11:39.417Z,7.88
2022-10-14T21:14:08.026Z,7.05
2022-10-14T21:16:39.858Z,8.50
2022-10-14T21:19:11.172Z,11.07
2022-10-14T21:21:42.814Z,7.38
2022-10-14T21:24:14.508Z,7.68
2022-10-14T21:26:42.804Z,8.35
2022-10-14T21:29:11.757Z,6.97
2022-10-14T21:31:40.935Z,8.07
2022-10-14T21:34:12.512Z,6.72
2022-10-14T21:36:42.043Z,9.90
2022-10-14T21:39:13.375Z,10.90
2022-10-14T21:41:43.344Z,7.10
2022-10-14T21:44:16.358Z,9.15
2022-10-14T21:46:45.225Z,8.25
2022-10-14T21:49:15.584Z,9.75
2022-10-14T21:51:44.223Z,6.72
2022-10-14T21:54:13.180Z,12.27
2022-10-14T21:56:41.576Z,8.75
2022-10-14T21:59:10.561Z,8.10
2022-10-14T22:01:39.348Z,7.90
2022-10-14T22:04:08.449Z,9.75
2022-10-14T22:06:38.752Z,10.27
2022-10-14T22:09:09.015Z,9.25
2022-10-14T22:11:40.131Z,10.73
2022-10-14T22:14:13.373Z,9.00
2022-10-14T22:16:42.265Z,14.48
2022-10-14T22:19:13.499Z,15.48
2022-10-14T22:21:46.189Z,10.75
2022-10-14T22:24:15.050Z,12.90
2022-10-14T22:26:43.899Z,10.25
2022-10-14T22:29:14.830Z,10.73
2022-10-14T22:31:43.725Z,11.38
2022-10-14T22:34:14.340Z,12.43
2022-10-14T22:36:44.927Z,13.05
2022-10-14T22:39:17.307Z,11.05
2022-10-14T22:41:46.010Z,11.35
2022-10-14T22:44:14.301Z,12.88
2022-10-14T22:46:42.954Z,15.32
2022-10-14T22:49:11.384Z,14.30
2022-10-14T22:51:41.313Z,14.82
2022-10-14T22:54:11.624Z,12.50
2022-10-14T22:56:40.916Z,13.48
2022-10-14T22:59:11.297Z,11.38
2022-10-14T23:01:41.280Z,15.25
2022-10-14T23:04:10.797Z,13.80
2022-10-14T23:06:40.302Z,13.50
2022-10-14T23:09:10.295Z,13.60
2022-10-14T23:11:39.489Z,12.05
2022-10-14T23:14:08.225Z,11.55
2022-10-14T23:16:37.297Z,14.82
2022-10-14T23:19:05.932Z,11.82
2022-10-14T23:21:36.261Z,9.75
2022-10-14T23:24:07.479Z,12.65
2022-10-14T23:26:37.925Z,13.15
2022-10-14T23:29:09.828Z,10.23
2022-10-14T23:31:40.124Z,10.38
2022-10-14T23:34:13.100Z,12.02
2022-10-14T23:36:42.404Z,10.30
2022-10-14T23:39:11.905Z,8.73
2022-10-14T23:41:41.731Z,9.20
2022-10-14T23:44:12.101Z,9.98
2022-10-14T23:46:40.722Z,8.18
2022-10-14T23:49:24.947Z,6.85
2022-10-14T23:51:55.230Z,7.50
2022-10-14T23:54:23.931Z,6.38
2022-10-14T23:56:53.928Z,5.25
2022-10-14T23:59:22.642Z,6.82
